createdAt,value
2023-03-21T00:00:54.611Z,18.22
2023-03-21T00:03:22.703Z,18.30
2023-03-21T00:05:53.940Z,18.17
2023-03-21T00:08:24.205Z,18.36
2023-03-21T00:10:58.216Z,18.83
2023-03-21T00:13:32.643Z,19.26
2023-03-21T00:16:18.743Z,18.62
2023-03-21T00:18:55.721Z,18.32
2023-03-21T00:24:16.683Z,18.33
2023-03-21T00:26:44.964Z,18.11
2023-03-21T00:29:14.442Z,17.84
2023-03-21T00:31:42.454Z,18.43
2023-03-21T00:36:38.633Z,17.81
2023-03-21T00:39:08.102Z,17.97
2023-03-21T00:41:42.940Z,18.11
2023-03-21T00:44:13.488Z,18.79
2023-03-21T00:46:54.085Z,19.37
2023-03-21T00:49:25.173Z,18.81
2023-03-21T00:51:55.193Z,18.12
2023-03-21T00:54:23.282Z,19.11
2023-03-21T00:56:51.292Z,19.16
2023-03-21T00:59:19.207Z,19.40
2023-03-21T01:01:49.673Z,19.96
2023-03-21T01:04:18.074Z,19.43
2023-03-21T01:06:47.408Z,18.81
2023-03-21T01:09:17.633Z,18.76
2023-03-21T01:11:46.332Z,18.69
2023-03-21T01:14:22.553Z,18.90
2023-03-21T01:16:53.202Z,18.91
2023-03-21T01:19:29.173Z,18.54
2023-03-21T01:22:01.399Z,18.06
2023-03-21T01:24:29.364Z,18.09
2023-03-21T01:26:57.795Z,18.79
2023-03-21T01:29:25.614Z,18.11
2023-03-21T01:31:55.843Z,19.07
2023-03-21T01:34:24.074Z,18.75
2023-03-21T01:36:52.171Z,18.73
2023-03-21T01:39:21.912Z,19.11
2023-03-21T01:41:51.483Z,18.72
2023-03-21T01:44:30.132Z,18.81
2023-03-21T01:47:15.441Z,18.87
2023-03-21T01:49:49.710Z,18.58
2023-03-21T01:52:37.015Z,18.69
2023-03-21T01:55:13.219Z,18.82
2023-03-21T01:58:05.752Z,19.06
2023-03-21T02:00:47.318Z,18.94
2023-03-21T02:03:38.335Z,19.84
2023-03-21T02:06:30.385Z,19.51
2023-03-21T02:09:08.735Z,19.77
2023-03-21T02:11:39.603Z,19.28
2023-03-21T02:14:10.075Z,19.05
2023-03-21T02:17:02.073Z,18.85
2023-03-21T02:20:11.810Z,19.04
2023-03-21T02:23:15.253Z,18.95
2023-03-21T02:26:20.393Z,19.03
2023-03-21T02:28:57.204Z,19.34
2023-03-21T02:31:37.168Z,18.78
2023-03-21T02:34:34.580Z,19.27
2023-03-21T02:37:16.033Z,18.68
2023-03-21T02:39:54.349Z,19.23
2023-03-21T02:42:29.518Z,18.58
2023-03-21T02:45:03.213Z,18.81
2023-03-21T02:47:40.413Z,19.05
2023-03-21T02:50:13.897Z,19.51
2023-03-21T02:52:47.202Z,19.67
2023-03-21T02:55:20.756Z,19.06
2023-03-21T02:58:06.999Z,19.43
2023-03-21T03:00:42.939Z,19.26
2023-03-21T03:03:24.797Z,19.33
2023-03-21T03:06:01.632Z,19.87
2023-03-21T03:08:53.092Z,19.20
2023-03-21T03:11:30.845Z,20.08
2023-03-21T03:14:44.338Z,19.74
2023-03-21T03:17:32.761Z,19.33
2023-03-21T03:20:17.152Z,19.54
2023-03-21T03:22:56.622Z,19.75
2023-03-21T03:25:42.138Z,19.37
2023-03-21T03:28:16.919Z,18.87
2023-03-21T03:31:01.149Z,19.46
2023-03-21T03:33:44.444Z,18.95
2023-03-21T03:36:33.541Z,19.33
2023-03-21T03:39:10.581Z,19.00
2023-03-21T03:44:39.401Z,18.45
2023-03-21T03:47:17.442Z,19.17
2023-03-21T03:50:02.272Z,19.10
2023-03-21T03:52:42.035Z,19.40
2023-03-21T03:55:18.666Z,18.91
2023-03-21T03:57:51.262Z,18.30
2023-03-21T04:00:20.876Z,18.77
2023-03-21T04:02:51.389Z,18.69
2023-03-21T04:05:24.465Z,18.89
2023-03-21T04:07:52.646Z,18.92
2023-03-21T04:10:28.587Z,18.97
2023-03-21T04:12:57.989Z,18.58
2023-03-21T04:15:38.089Z,18.71
2023-03-21T04:18:12.784Z,18.76
2023-03-21T04:20:41.191Z,19.48
2023-03-21T04:23:09.545Z,18.92
2023-03-21T04:25:44.606Z,19.18
2023-03-21T04:28:17.474Z,18.99
2023-03-21T04:31:03.293Z,18.62
2023-03-21T04:33:42.078Z,18.31
2023-03-21T04:36:26.398Z,18.58
2023-03-21T04:39:01.001Z,19.17
2023-03-21T04:41:30.763Z,18.28
2023-03-21T04:44:00.131Z,18.01
2023-03-21T04:46:28.062Z,17.93
2023-03-21T04:48:55.970Z,18.49
2023-03-21T04:51:23.894Z,18.60
2023-03-21T04:53:52.542Z,18.64
2023-03-21T04:56:20.833Z,18.02
2023-03-21T04:58:48.722Z,18.52
2023-03-21T05:01:20.656Z,19.09
2023-03-21T05:03:49.364Z,18.77
2023-03-21T05:06:17.365Z,18.91
2023-03-21T05:08:45.636Z,19.31
2023-03-21T05:11:13.793Z,19.29
2023-03-21T05:13:41.744Z,18.85
2023-03-21T05:16:10.504Z,19.03
2023-03-21T05:18:40.057Z,19.35
2023-03-21T05:21:18.069Z,18.90
2023-03-21T05:23:54.234Z,18.87
2023-03-21T05:26:23.822Z,18.75
2023-03-21T05:29:01.394Z,19.50
2023-03-21T05:31:29.482Z,19.14
2023-03-21T05:34:08.077Z,19.40
2023-03-21T05:36:36.998Z,18.78
2023-03-21T05:39:08.365Z,19.03
2023-03-21T05:41:40.782Z,17.94
2023-03-21T05:44:09.763Z,18.81
2023-03-21T05:46:39.171Z,18.40
2023-03-21T05:49:08.888Z,18.62
2023-03-21T05:51:36.782Z,18.13
2023-03-21T05:54:04.781Z,18.68
2023-03-21T05:56:32.996Z,18.07
2023-03-21T05:59:06.364Z,18.10
2023-03-21T06:01:39.928Z,18.04
2023-03-21T06:04:14.970Z,18.89
2023-03-21T06:06:42.848Z,19.23
2023-03-21T06:09:10.813Z,18.73
2023-03-21T06:11:45.248Z,17.86
2023-03-21T06:14:27.438Z,18.59
2023-03-21T06:17:15.826Z,18.39
2023-03-21T06:19:50.742Z,19.28
2023-03-21T06:22:31.853Z,18.67
2023-03-21T06:25:06.097Z,19.16
2023-03-21T06:27:34.836Z,18.68
2023-03-21T06:30:03.062Z,19.11
2023-03-21T06:32:37.103Z,18.90
2023-03-21T06:35:12.350Z,18.26
2023-03-21T06:37:40.389Z,19.79
2023-03-21T06:40:09.674Z,18.91
2023-03-21T06:42:37.453Z,19.17
2023-03-21T06:45:11.602Z,19.05
2023-03-21T06:47:39.703Z,19.58
2023-03-21T06:50:16.255Z,20.08
2023-03-21T06:52:45.637Z,19.78
2023-03-21T06:55:15.183Z,19.63
2023-03-21T06:57:43.341Z,19.38
2023-03-21T07:00:12.854Z,20.15
2023-03-21T07:02:50.029Z,20.83
2023-03-21T07:05:21.886Z,20.89
2023-03-21T07:07:49.677Z,21.14
2023-03-21T07:10:17.779Z,21.19
2023-03-21T07:12:51.048Z,20.41
2023-03-21T07:15:24.726Z,20.02
2023-03-21T07:17:52.941Z,20.10
2023-03-21T07:20:22.427Z,20.81
2023-03-21T07:22:50.614Z,20.90
2023-03-21T07:25:20.218Z,21.02
2023-03-21T07:27:49.828Z,20.96
2023-03-21T07:30:19.570Z,20.57
2023-03-21T07:32:48.444Z,20.09
2023-03-21T07:35:19.081Z,20.85
2023-03-21T07:37:48.435Z,21.25
2023-03-21T07:40:18.624Z,21.66
2023-03-21T07:42:46.876Z,21.64
2023-03-21T07:45:19.860Z,21.79
2023-03-21T07:47:49.785Z,21.17
2023-03-21T07:50:18.082Z,21.40
2023-03-21T07:52:49.194Z,21.30
2023-03-21T07:55:18.724Z,21.76
2023-03-21T07:57:46.947Z,22.77
2023-03-21T08:00:22.790Z,23.26
2023-03-21T08:02:57.822Z,22.43
2023-03-21T08:05:28.832Z,23.27
2023-03-21T08:07:58.311Z,23.20
2023-03-21T08:10:26.613Z,22.16
2023-03-21T08:12:54.502Z,22.78
2023-03-21T08:15:22.975Z,22.12
2023-03-21T08:17:50.864Z,22.31
2023-03-21T08:20:21.136Z,21.94
2023-03-21T08:22:49.809Z,21.04
2023-03-21T08:25:21.662Z,20.49
2023-03-21T08:27:50.704Z,20.44
2023-03-21T08:30:20.412Z,20.67
2023-03-21T08:32:48.312Z,20.68
2023-03-21T08:35:18.875Z,20.12
2023-03-21T08:37:46.910Z,20.56
2023-03-21T08:40:17.744Z,20.05
2023-03-21T08:42:47.558Z,19.56
2023-03-21T08:45:18.084Z,20.70
2023-03-21T08:47:46.155Z,20.72
2023-03-21T08:50:16.268Z,20.71
2023-03-21T08:52:44.095Z,20.34
2023-03-21T08:55:12.819Z,19.98
2023-03-21T08:57:41.035Z,20.87
2023-03-21T09:00:14.273Z,20.13
2023-03-21T09:02:43.236Z,19.65
2023-03-21T09:05:12.648Z,19.51
2023-03-21T09:07:41.618Z,20.94
2023-03-21T09:10:20.658Z,21.07
2023-03-21T09:12:50.394Z,20.57
2023-03-21T09:15:24.662Z,19.85
2023-03-21T09:17:54.423Z,20.17
2023-03-21T09:20:31.190Z,20.17
2023-03-21T09:23:01.622Z,19.55
2023-03-21T09:25:35.605Z,20.89
2023-03-21T09:28:05.621Z,21.10
2023-03-21T09:30:36.880Z,21.13
2023-03-21T09:33:13.119Z,21.23
2023-03-21T09:35:42.757Z,21.79
2023-03-21T09:38:10.978Z,21.26
2023-03-21T09:40:58.315Z,20.27
2023-03-21T09:43:40.485Z,20.03
2023-03-21T09:46:15.560Z,19.91
2023-03-21T09:48:57.331Z,20.81
2023-03-21T09:51:31.262Z,21.46
2023-03-21T09:54:02.517Z,21.12
2023-03-21T09:56:31.246Z,20.89
2023-03-21T09:59:01.533Z,21.52
2023-03-21T10:01:34.401Z,21.78
2023-03-21T10:04:05.843Z,22.08
2023-03-21T10:06:40.686Z,21.91
2023-03-21T10:09:15.721Z,21.04
2023-03-21T10:11:48.988Z,21.34
2023-03-21T10:14:22.538Z,21.51
2023-03-21T10:16:56.704Z,21.45
2023-03-21T10:19:27.262Z,20.93
2023-03-21T10:22:03.891Z,21.66
2023-03-21T10:24:35.061Z,22.79
2023-03-21T10:27:04.464Z,21.64
2023-03-21T10:29:39.298Z,22.46
2023-03-21T10:32:11.456Z,23.34
2023-03-21T10:34:43.730Z,21.92
2023-03-21T10:37:13.636Z,22.47
2023-03-21T10:39:44.103Z,21.33
2023-03-21T10:42:19.794Z,22.74
2023-03-21T10:44:49.154Z,22.68
2023-03-21T10:47:23.843Z,21.99
2023-03-21T10:50:09.040Z,22.21
2023-03-21T10:52:39.496Z,22.13
2023-03-21T10:55:17.602Z,22.67
2023-03-21T10:57:46.916Z,22.44
2023-03-21T11:00:21.392Z,22.17
2023-03-21T11:02:53.319Z,22.08
2023-03-21T11:05:23.982Z,21.52
2023-03-21T11:07:59.767Z,21.12
2023-03-21T11:10:32.316Z,21.31
2023-03-21T11:13:06.582Z,21.65
2023-03-21T11:15:42.518Z,21.34
2023-03-21T11:18:21.058Z,21.80
2023-03-21T11:20:54.795Z,21.71
2023-03-21T11:23:27.182Z,21.54
2023-03-21T11:25:56.085Z,22.20
2023-03-21T11:28:28.534Z,21.55
2023-03-21T11:31:03.984Z,21.55
2023-03-21T11:33:40.305Z,21.52
2023-03-21T11:36:27.362Z,21.69
2023-03-21T11:38:59.113Z,21.64
2023-03-21T11:41:30.954Z,22.35
2023-03-21T11:44:01.108Z,21.88
2023-03-21T11:46:31.638Z,22.18
2023-03-21T11:49:01.880Z,21.71
2023-03-21T11:51:39.447Z,21.63
2023-03-21T11:54:13.924Z,21.40
2023-03-21T11:56:48.489Z,21.64
2023-03-21T11:59:35.766Z,21.03
2023-03-21T12:02:22.241Z,21.87
2023-03-21T12:04:56.537Z,20.99
2023-03-21T12:07:34.440Z,21.38
2023-03-21T12:10:18.980Z,21.29
2023-03-21T12:12:53.930Z,22.55
2023-03-21T12:15:29.419Z,21.49
2023-03-21T12:18:06.955Z,22.34
2023-03-21T12:20:46.523Z,19.91
2023-03-21T12:23:36.257Z,21.17
2023-03-21T12:26:19.887Z,21.46
2023-03-21T12:29:01.326Z,20.96
2023-03-21T12:31:38.618Z,20.82
2023-03-21T12:34:20.416Z,20.38
2023-03-21T12:37:04.612Z,21.88
2023-03-21T12:39:36.438Z,21.03
2023-03-21T12:42:19.413Z,21.25
2023-03-21T12:44:52.220Z,21.71
2023-03-21T12:47:25.400Z,21.13
2023-03-21T12:49:58.967Z,21.48
2023-03-21T12:52:33.869Z,21.18
2023-03-21T12:55:07.487Z,20.32
2023-03-21T12:57:47.766Z,21.04
2023-03-21T13:00:28.074Z,21.98
2023-03-21T13:02:59.925Z,21.06
2023-03-21T13:05:31.900Z,21.96
2023-03-21T13:08:08.973Z,21.81
2023-03-21T13:10:37.227Z,21.23
2023-03-21T13:13:16.185Z,21.87
2023-03-21T13:15:57.481Z,21.76
2023-03-21T13:18:37.600Z,21.69
2023-03-21T13:21:14.674Z,20.63
2023-03-21T13:23:59.933Z,21.27
2023-03-21T13:26:35.318Z,20.99
2023-03-21T13:29:13.108Z,20.77
2023-03-21T13:31:52.153Z,21.31
2023-03-21T13:34:23.221Z,21.65
2023-03-21T13:36:53.200Z,21.09
2023-03-21T13:39:29.563Z,20.73
2023-03-21T13:42:04.779Z,20.48
2023-03-21T13:44:40.231Z,20.30
2023-03-21T13:47:25.481Z,20.58
2023-03-21T13:50:26.720Z,20.68
2023-03-21T13:53:36.207Z,20.84
2023-03-21T13:56:25.775Z,20.89
2023-03-21T13:59:01.939Z,20.43
2023-03-21T14:01:37.919Z,20.07
2023-03-21T14:04:15.136Z,20.60
2023-03-21T14:06:47.659Z,20.43
2023-03-21T14:09:23.413Z,20.90
2023-03-21T14:11:56.664Z,21.55
2023-03-21T14:14:33.795Z,20.46
2023-03-21T14:17:01.707Z,20.68
2023-03-21T14:19:33.629Z,21.42
2023-03-21T14:22:02.386Z,21.59
2023-03-21T14:24:31.369Z,21.61
2023-03-21T14:27:01.900Z,21.58
2023-03-21T14:29:32.799Z,21.17
2023-03-21T14:32:01.912Z,20.39
2023-03-21T14:34:32.325Z,21.12
2023-03-21T14:37:00.334Z,21.93
2023-03-21T14:39:31.085Z,23.10
2023-03-21T14:42:05.257Z,22.46
2023-03-21T14:44:53.430Z,22.45
2023-03-21T14:47:24.062Z,22.19
2023-03-21T14:49:52.672Z,21.85
2023-03-21T14:52:25.116Z,21.83
2023-03-21T14:54:54.515Z,22.15
2023-03-21T14:57:27.681Z,23.03
2023-03-21T14:59:59.226Z,23.49
2023-03-21T15:02:30.203Z,22.67
2023-03-21T15:05:06.657Z,23.02
2023-03-21T15:07:36.296Z,22.51
2023-03-21T15:10:07.644Z,22.17
2023-03-21T15:12:36.917Z,22.51
2023-03-21T15:15:05.775Z,22.88
2023-03-21T15:17:33.762Z,23.07
2023-03-21T15:20:02.195Z,22.39
2023-03-21T15:22:35.548Z,22.22
2023-03-21T15:25:06.152Z,22.12
2023-03-21T15:27:36.231Z,21.93
2023-03-21T15:30:06.892Z,21.46
2023-03-21T15:32:37.977Z,22.12
2023-03-21T15:35:08.082Z,21.97
2023-03-21T15:37:37.985Z,22.46
2023-03-21T15:40:11.679Z,21.77
2023-03-21T15:42:40.725Z,22.21
2023-03-21T15:45:27.848Z,21.84
2023-03-21T15:48:00.829Z,22.36
2023-03-21T15:50:35.105Z,23.04
2023-03-21T15:53:06.731Z,22.30
2023-03-21T15:55:43.553Z,22.84
2023-03-21T15:58:18.097Z,22.38
2023-03-21T16:00:54.986Z,21.94
2023-03-21T16:03:27.103Z,21.88
2023-03-21T16:06:10.759Z,21.91
2023-03-21T16:08:46.075Z,21.21
2023-03-21T16:11:18.321Z,21.63
2023-03-21T16:13:46.340Z,21.06
2023-03-21T16:16:21.325Z,20.72
2023-03-21T16:18:49.552Z,21.65
2023-03-21T16:21:19.836Z,21.62
2023-03-21T16:23:48.558Z,21.42
2023-03-21T16:26:18.877Z,20.95
2023-03-21T16:28:47.372Z,20.70
2023-03-21T16:31:19.476Z,21.12
2023-03-21T16:33:48.687Z,21.15
2023-03-21T16:36:18.612Z,21.78
2023-03-21T16:38:47.569Z,20.94
2023-03-21T16:41:15.950Z,21.07
2023-03-21T16:43:44.802Z,21.38
2023-03-21T16:46:16.391Z,21.86
2023-03-21T16:48:47.886Z,20.58
2023-03-21T16:51:17.146Z,20.41
2023-03-21T16:53:46.016Z,20.80
2023-03-21T16:56:16.174Z,20.91
2023-03-21T16:58:44.178Z,21.41
2023-03-21T17:01:14.792Z,20.98
2023-03-21T17:03:42.984Z,21.06
2023-03-21T17:06:17.291Z,20.53
2023-03-21T17:08:45.587Z,20.09
2023-03-21T17:11:16.446Z,19.91
2023-03-21T17:13:44.705Z,20.02
2023-03-21T17:16:13.584Z,20.65
2023-03-21T17:18:41.987Z,20.51
2023-03-21T17:21:14.269Z,21.16
2023-03-21T17:23:43.821Z,21.51
2023-03-21T17:26:13.841Z,20.62
2023-03-21T17:28:42.553Z,18.03
2023-03-21T17:31:16.199Z,18.70
2023-03-21T17:33:44.853Z,19.20
2023-03-21T17:36:15.656Z,20.01
2023-03-21T17:38:45.737Z,20.18
2023-03-21T17:41:14.204Z,20.83
2023-03-21T17:43:42.231Z,21.07
2023-03-21T17:46:13.013Z,20.92
2023-03-21T17:48:41.110Z,20.63
2023-03-21T17:51:12.704Z,20.73
2023-03-21T17:53:41.673Z,20.39
2023-03-21T17:56:15.823Z,20.77
2023-03-21T17:58:43.922Z,20.07
2023-03-21T18:01:11.762Z,19.95
2023-03-21T18:03:40.414Z,19.71
2023-03-21T18:06:13.866Z,19.85
2023-03-21T18:08:42.319Z,19.34
2023-03-21T18:11:12.584Z,19.63
2023-03-21T18:13:43.475Z,19.85
2023-03-21T18:16:14.943Z,20.06
2023-03-21T18:18:42.959Z,19.85
2023-03-21T18:21:10.903Z,19.95
2023-03-21T18:23:39.045Z,20.07
2023-03-21T18:26:07.936Z,19.69
2023-03-21T18:28:39.569Z,20.74
2023-03-21T18:31:18.008Z,20.06
2023-03-21T18:33:49.057Z,20.54
2023-03-21T18:36:24.697Z,20.84
2023-03-21T18:38:55.425Z,21.41
2023-03-21T18:41:23.800Z,20.98
2023-03-21T18:44:02.834Z,20.20
2023-03-21T18:46:46.889Z,20.60
2023-03-21T18:49:58.866Z,20.14
2023-03-21T18:52:03.660Z,20.43
2023-03-21T18:54:32.143Z,21.29
2023-03-21T18:59:48.311Z,21.68
2023-03-21T19:02:18.046Z,21.16
2023-03-21T19:04:46.586Z,20.95
2023-03-21T19:07:14.650Z,20.30
2023-03-21T19:10:05.237Z,20.92
2023-03-21T19:12:31.811Z,20.22
2023-03-21T19:14:59.651Z,20.16
2023-03-21T19:20:17.147Z,21.25
2023-03-21T19:22:46.159Z,20.70
2023-03-21T19:25:15.957Z,21.07
2023-03-21T19:27:44.481Z,21.02
2023-03-21T19:30:15.436Z,20.82
2023-03-21T19:32:45.375Z,20.37
2023-03-21T19:35:14.206Z,20.76
2023-03-21T19:37:42.267Z,19.96
2023-03-21T19:40:11.149Z,19.43
2023-03-21T19:42:39.210Z,19.95
2023-03-21T19:45:08.381Z,19.49
2023-03-21T19:47:36.321Z,20.56
2023-03-21T19:50:42.745Z,20.12
2023-03-21T19:52:55.057Z,19.45
2023-03-21T19:55:23.200Z,20.38
2023-03-21T19:57:52.248Z,19.81
2023-03-21T20:00:21.636Z,20.12
2023-03-21T20:02:49.624Z,20.16
2023-03-21T20:05:21.991Z,21.14
2023-03-21T20:07:50.052Z,19.95
2023-03-21T20:10:18.055Z,19.81
2023-03-21T20:12:46.082Z,19.92
2023-03-21T20:15:18.361Z,19.88
2023-03-21T20:17:49.289Z,19.00
2023-03-21T20:20:19.439Z,19.78
2023-03-21T20:25:40.675Z,19.64
2023-03-21T20:28:23.842Z,19.48
2023-03-21T20:30:56.816Z,20.54
2023-03-21T20:33:25.189Z,19.54
2023-03-21T20:38:47.879Z,18.77
2023-03-21T20:41:15.868Z,19.67
2023-03-21T20:44:39.239Z,19.58
2023-03-21T20:46:31.766Z,19.33
2023-03-21T20:48:59.767Z,20.11
2023-03-21T20:54:17.829Z,20.26
2023-03-21T20:56:46.048Z,20.38
2023-03-21T20:59:26.152Z,20.50
2023-03-21T21:01:56.324Z,20.59
2023-03-21T21:04:42.734Z,19.28
2023-03-21T21:07:15.910Z,19.57
2023-03-21T21:09:44.780Z,20.26
2023-03-21T21:12:13.882Z,18.57
2023-03-21T21:14:42.451Z,19.96
2023-03-21T21:17:27.680Z,20.12
2023-03-21T21:19:58.486Z,19.91
2023-03-21T21:22:28.163Z,19.91
2023-03-21T21:24:56.214Z,19.85
2023-03-21T21:27:24.087Z,18.73
2023-03-21T21:29:52.306Z,19.51
2023-03-21T21:32:20.794Z,19.44
2023-03-21T21:34:48.996Z,19.71
2023-03-21T21:37:17.071Z,20.04
2023-03-21T21:39:46.750Z,19.75
2023-03-21T21:42:14.724Z,19.64
2023-03-21T21:44:45.092Z,19.35
2023-03-21T21:47:13.417Z,19.16
2023-03-21T21:49:45.090Z,18.88
2023-03-21T21:52:14.379Z,19.70
2023-03-21T21:54:45.744Z,19.67
2023-03-21T21:57:19.107Z,19.90
2023-03-21T21:59:47.083Z,20.26
2023-03-21T22:02:16.806Z,20.06
2023-03-21T22:04:44.978Z,18.88
2023-03-21T22:07:14.508Z,19.06
2023-03-21T22:09:42.767Z,18.98
2023-03-21T22:12:10.926Z,19.21
2023-03-21T22:14:40.298Z,19.63
2023-03-21T22:17:08.253Z,19.12
2023-03-21T22:19:37.386Z,18.73
2023-03-21T22:22:06.189Z,18.87
2023-03-21T22:24:34.362Z,19.05
2023-03-21T22:27:02.250Z,19.08
2023-03-21T22:29:30.473Z,19.36
2023-03-21T22:31:59.747Z,19.47
2023-03-21T22:34:27.883Z,20.04
2023-03-21T22:36:57.011Z,19.65
2023-03-21T22:39:26.364Z,19.13
2023-03-21T22:41:57.828Z,20.04
2023-03-21T22:44:25.874Z,19.79
2023-03-21T22:46:53.676Z,20.28
2023-03-21T22:49:22.793Z,20.79
2023-03-21T22:51:50.565Z,20.92
2023-03-21T22:54:18.408Z,20.78
2023-03-21T22:56:46.267Z,20.97
2023-03-21T22:59:14.136Z,19.59
2023-03-21T23:01:41.993Z,18.88
2023-03-21T23:04:10.166Z,19.99
2023-03-21T23:06:40.151Z,20.03
2023-03-21T23:09:09.188Z,19.36
2023-03-21T23:11:37.472Z,19.42
2023-03-21T23:14:08.324Z,19.10
2023-03-21T23:16:38.334Z,18.92
2023-03-21T23:19:08.128Z,18.70
2023-03-21T23:21:38.407Z,18.96
2023-03-21T23:24:08.975Z,18.32
2023-03-21T23:26:36.821Z,18.10
2023-03-21T23:29:06.180Z,18.87
2023-03-21T23:31:34.138Z,19.01
2023-03-21T23:34:02.995Z,19.54
2023-03-21T23:36:31.345Z,19.38
2023-03-21T23:38:59.589Z,19.65
2023-03-21T23:41:28.992Z,19.15
2023-03-21T23:43:56.888Z,19.49
2023-03-21T23:46:24.724Z,19.20
2023-03-21T23:48:53.029Z,19.70
2023-03-21T23:51:20.959Z,19.25
2023-03-21T23:53:48.918Z,19.08
2023-03-21T23:56:19.365Z,19.52
2023-03-21T23:58:50.045Z,19.08
